createdAt,value
2023-05-25T00:00:14.428Z,1008.94
2023-05-25T00:01:00.501Z,1008.84
2023-05-25T00:01:17.880Z,1008.84
2023-05-25T00:01:49.877Z,1008.94
2023-05-25T00:02:21.837Z,1008.94
2023-05-25T00:02:53.906Z,1008.84
2023-05-25T00:03:26.015Z,1008.84
2023-05-25T00:03:57.855Z,1008.84
2023-05-25T00:04:29.834Z,1008.84
2023-05-25T00:05:01.826Z,1008.94
2023-05-25T00:05:33.616Z,1008.94
2023-05-25T00:06:05.758Z,1008.94
2023-05-25T00:06:37.722Z,1008.94
2023-05-25T00:07:09.618Z,1008.94
2023-05-25T00:07:41.563Z,1008.94
2023-05-25T00:08:13.565Z,1009.11
2023-05-25T00:08:45.812Z,1009.04
2023-05-25T00:09:17.669Z,1009.04
2023-05-25T00:09:49.391Z,1008.94
2023-05-25T00:10:21.780Z,1008.94
2023-05-25T00:10:53.447Z,1009.04
2023-05-25T00:11:25.545Z,1009.04
2023-05-25T00:11:57.292Z,1009.04
2023-05-25T00:12:29.324Z,1009.04
2023-05-25T00:13:01.437Z,1008.94
2023-05-25T00:13:33.404Z,1008.94
2023-05-25T00:14:05.380Z,1009.04
2023-05-25T00:14:37.337Z,1009.04
2023-05-25T00:15:09.464Z,1009.11
2023-05-25T00:15:41.183Z,1009.11
2023-05-25T00:16:13.148Z,1008.94
2023-05-25T00:16:45.402Z,1009.11
2023-05-25T00:17:17.404Z,1009.11
2023-05-25T00:17:49.249Z,1008.94
2023-05-25T00:18:21.209Z,1008.94
2023-05-25T00:18:53.107Z,1008.84
2023-05-25T00:19:25.134Z,1008.84
2023-05-25T00:19:57.702Z,1009.04
2023-05-25T00:20:29.010Z,1009.04
2023-05-25T00:21:01.230Z,1009.04
2023-05-25T00:21:33.019Z,1009.04
2023-05-25T00:22:04.796Z,1009.11
2023-05-25T00:22:36.913Z,1009.11
2023-05-25T00:23:08.900Z,1009.11
2023-05-25T00:23:41.041Z,1009.11
2023-05-25T00:24:12.778Z,1008.94
2023-05-25T00:24:44.797Z,1009.04
2023-05-25T00:25:16.874Z,1009.04
2023-05-25T00:25:48.658Z,1008.94
2023-05-25T00:26:20.849Z,1008.94
2023-05-25T00:26:52.742Z,1009.11
2023-05-25T00:27:24.739Z,1009.11
2023-05-25T00:27:56.673Z,1009.04
2023-05-25T00:28:28.607Z,1009.04
2023-05-25T00:29:00.860Z,1009.04
2023-05-25T00:29:33.068Z,1009.04
2023-05-25T00:30:04.649Z,1008.84
2023-05-25T00:30:36.654Z,1008.84
2023-05-25T00:31:08.663Z,1009.04
2023-05-25T00:31:40.727Z,1009.04
2023-05-25T00:32:12.433Z,1009.04
2023-05-25T00:32:44.564Z,1008.94
2023-05-25T00:33:16.477Z,1008.94
2023-05-25T00:33:48.498Z,1008.94
2023-05-25T00:34:20.449Z,1008.94
2023-05-25T00:34:52.415Z,1009.04
2023-05-25T00:35:24.514Z,1009.04
2023-05-25T00:35:56.964Z,1009.04
2023-05-25T00:36:28.272Z,1009.04
2023-05-25T00:37:00.337Z,1008.94
2023-05-25T00:37:32.310Z,1008.94
2023-05-25T00:38:04.378Z,1008.94
2023-05-25T00:38:36.288Z,1008.94
2023-05-25T00:39:08.422Z,1008.94
2023-05-25T00:39:40.400Z,1008.94
2023-05-25T00:40:12.218Z,1008.94
2023-05-25T00:40:44.110Z,1009.11
2023-05-25T00:41:16.511Z,1009.11
2023-05-25T00:41:48.171Z,1008.84
2023-05-25T00:42:20.093Z,1008.84
2023-05-25T00:42:52.106Z,1008.94
2023-05-25T00:43:24.203Z,1008.94
2023-05-25T00:43:56.193Z,1009.04
2023-05-25T00:44:27.944Z,1009.04
2023-05-25T00:44:59.967Z,1009.04
2023-05-25T00:45:32.083Z,1009.04
2023-05-25T00:46:04.195Z,1008.94
2023-05-25T00:46:35.892Z,1008.94
2023-05-25T00:47:07.885Z,1008.74
2023-05-25T00:47:39.937Z,1008.74
2023-05-25T00:48:11.793Z,1008.84
2023-05-25T00:48:43.824Z,1008.84
2023-05-25T00:49:15.972Z,1008.94
2023-05-25T00:49:47.835Z,1008.74
2023-05-25T00:50:19.812Z,1008.74
2023-05-25T00:50:51.640Z,1008.84
2023-05-25T00:51:23.756Z,1008.84
2023-05-25T00:51:55.735Z,1008.84
2023-05-25T00:52:27.862Z,1008.84
2023-05-25T00:52:59.444Z,1008.94
2023-05-25T00:53:31.530Z,1008.94
2023-05-25T00:54:03.545Z,1008.94
2023-05-25T00:54:35.693Z,1008.94
2023-05-25T00:55:07.429Z,1008.94
2023-05-25T00:55:39.546Z,1008.94
2023-05-25T00:56:11.677Z,1009.04
2023-05-25T00:56:43.653Z,1009.04
2023-05-25T00:57:15.546Z,1009.11
2023-05-25T00:57:47.437Z,1008.84
2023-05-25T00:58:19.539Z,1008.84
2023-05-25T00:58:51.587Z,1008.74
2023-05-25T00:59:23.423Z,1008.74
2023-05-25T00:59:55.336Z,1008.94
2023-05-25T01:00:27.589Z,1008.94
2023-05-25T01:00:59.508Z,1009.04
2023-05-25T01:01:31.466Z,1009.04
2023-05-25T01:02:03.501Z,1008.84
2023-05-25T01:02:35.443Z,1008.84
2023-05-25T01:03:09.076Z,1008.94
2023-05-25T01:03:39.328Z,1008.94
2023-05-25T01:04:11.358Z,1009.04
2023-05-25T01:04:43.384Z,1009.04
2023-05-25T01:05:15.021Z,1008.94
2023-05-25T01:05:47.041Z,1008.94
2023-05-25T01:06:19.146Z,1008.94
2023-05-25T01:06:51.222Z,1008.94
2023-05-25T01:07:23.083Z,1008.94
2023-05-25T01:07:54.952Z,1008.84
2023-05-25T01:08:27.111Z,1008.84
2023-05-25T01:08:59.156Z,1008.84
2023-05-25T01:09:30.941Z,1008.84
2023-05-25T01:10:03.182Z,1008.84
2023-05-25T01:10:35.119Z,1008.84
2023-05-25T01:11:07.048Z,1008.84
2023-05-25T01:11:38.861Z,1008.84
2023-05-25T01:12:10.929Z,1009.04
2023-05-25T01:12:42.926Z,1009.04
2023-05-25T01:13:14.842Z,1009.04
2023-05-25T01:13:46.790Z,1008.84
2023-05-25T01:14:19.213Z,1008.84
2023-05-25T01:14:50.881Z,1009.04
2023-05-25T01:15:22.965Z,1009.04
2023-05-25T01:15:54.722Z,1008.94
2023-05-25T01:16:26.697Z,1008.94
2023-05-25T01:16:58.647Z,1008.94
2023-05-25T01:17:30.884Z,1008.94
2023-05-25T01:18:02.679Z,1008.94
2023-05-25T01:18:34.599Z,1008.94
2023-05-25T01:19:06.704Z,1008.84
2023-05-25T01:19:38.820Z,1008.84
2023-05-25T01:20:12.011Z,1009.04
2023-05-25T01:20:42.483Z,1009.04
2023-05-25T01:21:14.578Z,1008.84
2023-05-25T01:21:46.515Z,1008.94
2023-05-25T01:22:18.300Z,1008.94
2023-05-25T01:22:50.378Z,1008.84
2023-05-25T01:23:22.530Z,1008.84
2023-05-25T01:23:54.626Z,1008.94
2023-05-25T01:24:26.579Z,1008.94
2023-05-25T01:24:58.285Z,1008.94
2023-05-25T01:25:30.265Z,1008.94
2023-05-25T01:26:02.406Z,1008.84
2023-05-25T01:26:34.187Z,1008.84
2023-05-25T01:27:06.180Z,1009.04
2023-05-25T01:27:38.244Z,1009.04
2023-05-25T01:28:10.157Z,1009.04
2023-05-25T01:28:42.181Z,1009.04
2023-05-25T01:29:14.200Z,1009.04
2023-05-25T01:29:46.148Z,1008.94
2023-05-25T01:30:18.267Z,1008.94
2023-05-25T01:30:50.263Z,1008.84
2023-05-25T01:31:22.204Z,1008.84
2023-05-25T01:31:54.125Z,1009.04
2023-05-25T01:32:26.108Z,1009.04
2023-05-25T01:32:57.927Z,1008.84
2023-05-25T01:33:29.947Z,1008.84
2023-05-25T01:34:02.086Z,1009.04
2023-05-25T01:34:34.022Z,1009.04
2023-05-25T01:35:05.922Z,1008.84
2023-05-25T01:35:37.852Z,1008.84
2023-05-25T01:36:09.961Z,1008.94
2023-05-25T01:36:42.072Z,1008.94
2023-05-25T01:37:13.719Z,1008.94
2023-05-25T01:37:45.827Z,1009.04
2023-05-25T01:38:17.777Z,1009.04
2023-05-25T01:38:49.902Z,1008.94
2023-05-25T01:39:21.755Z,1008.94
2023-05-25T01:39:53.659Z,1008.94
2023-05-25T01:40:25.683Z,1008.94
2023-05-25T01:40:57.547Z,1008.94
2023-05-25T01:41:29.640Z,1008.94
2023-05-25T01:42:01.720Z,1008.94
2023-05-25T01:42:34.251Z,1008.94
2023-05-25T01:43:05.735Z,1009.11
2023-05-25T01:43:37.579Z,1009.11
2023-05-25T01:44:09.603Z,1008.94
2023-05-25T01:44:41.621Z,1008.94
2023-05-25T01:45:13.708Z,1009.04
2023-05-25T01:45:45.656Z,1009.04
2023-05-25T01:46:17.534Z,1009.04
2023-05-25T01:46:49.423Z,1008.84
2023-05-25T01:47:21.649Z,1008.84
2023-05-25T01:47:53.193Z,1009.11
2023-05-25T01:48:25.436Z,1009.11
2023-05-25T01:48:57.449Z,1008.74
2023-05-25T01:49:29.186Z,1008.74
2023-05-25T01:50:01.465Z,1008.94
2023-05-25T01:50:33.260Z,1008.94
2023-05-25T01:51:05.361Z,1009.04
2023-05-25T01:51:37.096Z,1009.04
2023-05-25T01:52:09.213Z,1008.84
2023-05-25T01:52:41.258Z,1008.84
2023-05-25T01:53:13.167Z,1008.94
2023-05-25T01:53:44.947Z,1008.74
2023-05-25T01:54:17.129Z,1008.74
2023-05-25T01:54:49.071Z,1008.94
2023-05-25T01:55:21.157Z,1008.94
2023-05-25T01:55:52.851Z,1008.84
2023-05-25T01:56:24.940Z,1008.84
2023-05-25T01:56:56.858Z,1008.84
2023-05-25T01:57:28.890Z,1008.84
2023-05-25T01:58:01.128Z,1008.74
2023-05-25T01:58:33.279Z,1008.74
2023-05-25T01:59:04.920Z,1008.84
2023-05-25T01:59:36.943Z,1008.84
2023-05-25T02:00:09.567Z,1008.84
2023-05-25T02:00:40.880Z,1008.84
2023-05-25T02:01:12.879Z,1008.84
2023-05-25T02:01:44.982Z,1008.94
2023-05-25T02:02:16.770Z,1008.94
2023-05-25T02:02:48.762Z,1008.74
2023-05-25T02:03:20.842Z,1008.74
2023-05-25T02:03:52.786Z,1008.84
2023-05-25T02:04:24.780Z,1008.84
2023-05-25T02:04:56.845Z,1008.84
2023-05-25T02:05:28.648Z,1008.84
2023-05-25T02:06:00.574Z,1008.84
2023-05-25T02:06:32.541Z,1008.84
2023-05-25T02:07:04.798Z,1009.11
2023-05-25T02:07:36.713Z,1009.11
2023-05-25T02:08:08.460Z,1008.84
2023-05-25T02:08:40.487Z,1008.84
2023-05-25T02:09:12.520Z,1008.74
2023-05-25T02:09:44.602Z,1008.84
2023-05-25T02:10:16.441Z,1008.84
2023-05-25T02:10:48.354Z,1008.94
2023-05-25T02:11:20.456Z,1008.94
2023-05-25T02:11:52.519Z,1008.94
2023-05-25T02:12:24.353Z,1008.94
2023-05-25T02:12:56.351Z,1008.84
2023-05-25T02:13:28.526Z,1008.84
2023-05-25T02:14:00.191Z,1009.04
2023-05-25T02:14:32.235Z,1009.04
2023-05-25T02:15:04.412Z,1009.04
2023-05-25T02:15:36.411Z,1009.04
2023-05-25T02:16:08.229Z,1008.84
2023-05-25T02:16:40.121Z,1008.84
2023-05-25T02:17:12.114Z,1008.94
2023-05-25T02:17:44.265Z,1008.94
2023-05-25T02:18:15.958Z,1008.94
2023-05-25T02:18:47.977Z,1008.94
2023-05-25T02:19:20.003Z,1008.94
2023-05-25T02:19:52.117Z,1009.04
2023-05-25T02:20:23.887Z,1009.04
2023-05-25T02:20:55.930Z,1008.84
2023-05-25T02:21:28.083Z,1008.84
2023-05-25T02:22:00.122Z,1009.11
2023-05-25T02:22:31.818Z,1009.11
2023-05-25T02:23:03.802Z,1008.94
2023-05-25T02:23:35.903Z,1008.94
2023-05-25T02:24:07.974Z,1009.04
2023-05-25T02:24:39.617Z,1009.04
2023-05-25T02:25:11.810Z,1008.84
2023-05-25T02:25:43.982Z,1008.84
2023-05-25T02:26:15.701Z,1008.94
2023-05-25T02:26:47.527Z,1008.84
2023-05-25T02:27:19.644Z,1008.84
2023-05-25T02:27:51.812Z,1008.94
2023-05-25T02:28:23.809Z,1008.94
2023-05-25T02:28:55.631Z,1009.04
2023-05-25T02:29:27.576Z,1009.04
2023-05-25T02:29:59.607Z,1008.74
2023-05-25T02:30:31.778Z,1008.74
2023-05-25T02:31:03.502Z,1008.84
2023-05-25T02:31:35.485Z,1008.84
2023-05-25T02:32:07.504Z,1008.94
2023-05-25T02:32:39.676Z,1008.94
2023-05-25T02:33:11.349Z,1008.74
2023-05-25T02:33:43.408Z,1008.74
2023-05-25T02:34:15.517Z,1008.94
2023-05-25T02:34:47.288Z,1008.94
2023-05-25T02:35:19.303Z,1008.94
2023-05-25T02:35:51.409Z,1008.94
2023-05-25T02:36:23.352Z,1008.94
2023-05-25T02:36:55.181Z,1009.04
2023-05-25T02:37:27.206Z,1009.04
2023-05-25T02:37:59.301Z,1008.84
2023-05-25T02:38:31.433Z,1008.84
2023-05-25T02:39:03.210Z,1008.74
2023-05-25T02:39:35.260Z,1008.74
2023-05-25T02:40:07.230Z,1009.04
2023-05-25T02:40:39.210Z,1009.04
2023-05-25T02:41:11.156Z,1008.94
2023-05-25T02:41:43.165Z,1008.94
2023-05-25T02:42:15.073Z,1008.84
2023-05-25T02:42:47.136Z,1008.84
2023-05-25T02:43:18.932Z,1008.84
2023-05-25T02:43:51.253Z,1008.94
2023-05-25T02:44:23.136Z,1008.94
2023-05-25T02:44:54.869Z,1008.84
2023-05-25T02:45:26.961Z,1008.84
2023-05-25T02:45:59.053Z,1008.84
2023-05-25T02:46:31.251Z,1008.84
2023-05-25T02:47:03.015Z,1008.94
2023-05-25T02:47:34.786Z,1008.94
2023-05-25T02:48:06.848Z,1008.74
2023-05-25T02:48:39.040Z,1008.74
2023-05-25T02:49:11.031Z,1008.84
2023-05-25T02:49:42.788Z,1008.84
2023-05-25T02:50:14.722Z,1008.94
2023-05-25T02:50:46.749Z,1008.94
2023-05-25T02:51:18.572Z,1008.94
2023-05-25T02:51:51.085Z,1008.94
2023-05-25T02:52:22.712Z,1008.94
2023-05-25T02:52:54.663Z,1008.84
2023-05-25T02:53:26.524Z,1008.84
2023-05-25T02:53:58.561Z,1008.84
2023-05-25T02:54:30.711Z,1008.84
2023-05-25T02:55:02.687Z,1008.94
2023-05-25T02:55:34.419Z,1008.94
2023-05-25T02:56:06.535Z,1008.84
2023-05-25T02:56:38.390Z,1008.84
2023-05-25T02:57:10.732Z,1008.94
2023-05-25T02:57:42.341Z,1008.94
2023-05-25T02:58:14.354Z,1008.94
2023-05-25T02:58:46.268Z,1008.94
2023-05-25T02:59:18.233Z,1008.94
2023-05-25T02:59:50.257Z,1009.04
2023-05-25T03:00:22.400Z,1009.04
2023-05-25T03:00:54.364Z,1009.04
2023-05-25T03:01:26.257Z,1009.04
2023-05-25T03:01:58.221Z,1009.04
2023-05-25T03:02:30.441Z,1009.04
2023-05-25T03:03:02.416Z,1008.94
2023-05-25T03:03:34.194Z,1008.94
2023-05-25T03:04:06.180Z,1008.94
2023-05-25T03:04:38.297Z,1008.94
2023-05-25T03:05:10.558Z,1008.94
2023-05-25T03:05:42.107Z,1008.94
2023-05-25T03:06:14.017Z,1009.04
2023-05-25T03:06:46.152Z,1008.84
2023-05-25T03:07:18.202Z,1008.84
2023-05-25T03:07:49.935Z,1009.04
2023-05-25T03:08:21.944Z,1009.04
2023-05-25T03:08:54.764Z,1008.94
2023-05-25T03:09:25.992Z,1008.94
2023-05-25T03:09:58.857Z,1008.94
2023-05-25T03:10:29.994Z,1008.94
2023-05-25T03:11:04.276Z,1008.94
2023-05-25T03:11:33.908Z,1008.94
2023-05-25T03:12:06.814Z,1008.94
2023-05-25T03:12:37.906Z,1008.94
2023-05-25T03:13:11.028Z,1008.94
2023-05-25T03:13:41.788Z,1008.94
2023-05-25T03:14:14.690Z,1008.94
2023-05-25T03:14:45.968Z,1009.04
2023-05-25T03:15:18.774Z,1009.04
2023-05-25T03:15:49.749Z,1009.04
2023-05-25T03:16:22.490Z,1009.04
2023-05-25T03:16:54.120Z,1009.04
2023-05-25T03:17:26.745Z,1009.04
2023-05-25T03:17:57.705Z,1009.04
2023-05-25T03:18:30.789Z,1009.04
2023-05-25T03:19:01.536Z,1009.11
2023-05-25T03:19:34.732Z,1009.11
2023-05-25T03:20:05.697Z,1009.04
2023-05-25T03:20:38.535Z,1009.04
2023-05-25T03:21:09.430Z,1009.11
2023-05-25T03:21:42.470Z,1009.11
2023-05-25T03:22:13.558Z,1009.04
2023-05-25T03:22:46.410Z,1009.04
2023-05-25T03:23:17.366Z,1009.04
2023-05-25T03:23:50.357Z,1009.04
2023-05-25T03:24:21.282Z,1009.04
2023-05-25T03:24:54.140Z,1009.11
2023-05-25T03:25:25.477Z,1009.11
2023-05-25T03:25:58.437Z,1009.11
2023-05-25T03:26:29.054Z,1009.11
2023-05-25T03:27:02.200Z,1009.21
2023-05-25T03:27:33.350Z,1009.21
2023-05-25T03:28:05.994Z,1009.21
2023-05-25T03:28:37.025Z,1009.21
2023-05-25T03:29:10.086Z,1009.11
2023-05-25T03:29:41.486Z,1009.11
2023-05-25T03:30:14.297Z,1009.21
2023-05-25T03:30:44.992Z,1009.04
2023-05-25T03:31:17.870Z,1009.04
2023-05-25T03:31:49.007Z,1009.11
2023-05-25T03:32:22.206Z,1009.11
2023-05-25T03:32:52.989Z,1009.11
2023-05-25T03:33:25.791Z,1009.11
2023-05-25T03:33:56.997Z,1009.21
2023-05-25T03:34:29.911Z,1009.21
2023-05-25T03:35:01.185Z,1009.11
2023-05-25T03:35:34.541Z,1009.11
2023-05-25T03:36:04.892Z,1009.31
2023-05-25T03:36:37.799Z,1009.31
2023-05-25T03:37:08.851Z,1009.21
2023-05-25T03:37:41.721Z,1009.21
2023-05-25T03:38:12.653Z,1009.21
2023-05-25T03:38:45.847Z,1009.04
2023-05-25T03:39:16.700Z,1009.04
2023-05-25T03:39:49.642Z,1009.11
2023-05-25T03:40:21.038Z,1009.11
2023-05-25T03:40:53.572Z,1009.21
2023-05-25T03:41:24.529Z,1009.21
2023-05-25T03:41:57.577Z,1009.31
2023-05-25T03:42:28.689Z,1009.31
2023-05-25T03:43:01.657Z,1009.21
2023-05-25T03:43:32.538Z,1009.21
2023-05-25T03:44:05.687Z,1009.11
2023-05-25T03:44:37.009Z,1009.11
2023-05-25T03:45:09.690Z,1009.21
2023-05-25T03:45:40.439Z,1009.21
2023-05-25T03:46:13.287Z,1009.21
2023-05-25T03:46:44.436Z,1009.31
2023-05-25T03:47:17.486Z,1009.31
2023-05-25T03:47:48.413Z,1009.21
2023-05-25T03:48:21.355Z,1009.21
2023-05-25T03:48:52.292Z,1009.31
2023-05-25T03:49:25.384Z,1009.31
2023-05-25T03:49:56.212Z,1009.31
2023-05-25T03:50:29.370Z,1009.31
2023-05-25T03:51:00.250Z,1009.41
2023-05-25T03:51:33.252Z,1009.41
2023-05-25T03:52:04.189Z,1009.31
2023-05-25T03:52:38.048Z,1009.31
2023-05-25T03:53:08.146Z,1009.41
2023-05-25T03:53:41.086Z,1009.41
2023-05-25T03:54:11.969Z,1009.41
2023-05-25T03:54:45.064Z,1009.41
2023-05-25T03:55:16.273Z,1009.41
2023-05-25T03:55:48.790Z,1009.62
2023-05-25T03:56:20.001Z,1009.62
2023-05-25T03:56:52.853Z,1009.51
2023-05-25T03:57:23.869Z,1009.51
2023-05-25T03:57:56.826Z,1009.41
2023-05-25T03:58:27.776Z,1009.41
2023-05-25T03:59:00.966Z,1009.62
2023-05-25T03:59:31.897Z,1009.62
2023-05-25T04:00:05.362Z,1009.51
2023-05-25T04:00:35.778Z,1009.51
2023-05-25T04:01:08.954Z,1009.51
2023-05-25T04:01:39.818Z,1009.51
2023-05-25T04:02:12.750Z,1009.62
2023-05-25T04:02:43.892Z,1009.62
2023-05-25T04:03:16.781Z,1009.51
2023-05-25T04:03:48.017Z,1009.62
2023-05-25T04:04:20.777Z,1009.62
2023-05-25T04:04:51.940Z,1009.51
2023-05-25T04:05:24.635Z,1009.51
2023-05-25T04:05:55.672Z,1009.51
2023-05-25T04:06:28.719Z,1009.51
2023-05-25T04:06:59.516Z,1009.51
2023-05-25T04:07:32.460Z,1009.51
2023-05-25T04:08:03.665Z,1009.41
2023-05-25T04:08:36.486Z,1009.41
2023-05-25T04:09:07.420Z,1009.41
2023-05-25T04:09:40.546Z,1009.41
2023-05-25T04:10:11.349Z,1009.51
2023-05-25T04:10:44.495Z,1009.51
2023-05-25T04:11:15.313Z,1009.62
2023-05-25T04:11:48.248Z,1009.62
2023-05-25T04:12:19.289Z,1009.62
2023-05-25T04:12:52.330Z,1009.51
2023-05-25T04:13:23.351Z,1009.51
2023-05-25T04:13:56.502Z,1009.72
2023-05-25T04:14:27.253Z,1009.72
2023-05-25T04:15:00.039Z,1009.62
2023-05-25T04:15:31.324Z,1009.62
2023-05-25T04:16:04.403Z,1009.51
2023-05-25T04:16:35.071Z,1009.51
2023-05-25T04:17:08.107Z,1009.51
2023-05-25T04:17:39.579Z,1009.51
2023-05-25T04:18:12.169Z,1009.62
2023-05-25T04:18:43.016Z,1009.62
2023-05-25T04:19:15.874Z,1009.72
2023-05-25T04:19:47.030Z,1009.51
2023-05-25T04:20:20.055Z,1009.51
2023-05-25T04:20:50.939Z,1009.72
2023-05-25T04:21:23.757Z,1009.72
2023-05-25T04:21:55.417Z,1009.62
2023-05-25T04:22:27.904Z,1009.62
2023-05-25T04:22:58.823Z,1009.62
2023-05-25T04:23:31.797Z,1009.62
2023-05-25T04:24:02.927Z,1009.51
2023-05-25T04:24:35.830Z,1009.51
2023-05-25T04:25:06.567Z,1009.62
2023-05-25T04:25:39.808Z,1009.62
2023-05-25T04:26:11.021Z,1009.51
2023-05-25T04:26:43.757Z,1009.51
2023-05-25T04:27:14.496Z,1009.51
2023-05-25T04:27:47.623Z,1009.51
2023-05-25T04:28:18.765Z,1009.51
2023-05-25T04:28:51.567Z,1009.51
2023-05-25T04:29:22.490Z,1009.51
2023-05-25T04:29:55.445Z,1009.62
2023-05-25T04:30:26.677Z,1009.62
2023-05-25T04:30:59.480Z,1009.51
2023-05-25T04:31:30.655Z,1009.51
2023-05-25T04:32:03.677Z,1009.51
2023-05-25T04:32:34.465Z,1009.51
2023-05-25T04:33:07.733Z,1009.51
2023-05-25T04:33:38.429Z,1009.51
2023-05-25T04:34:11.448Z,1009.51
2023-05-25T04:34:42.481Z,1009.51
2023-05-25T04:35:15.549Z,1009.51
2023-05-25T04:35:46.432Z,1009.51
2023-05-25T04:36:19.550Z,1009.51
2023-05-25T04:36:50.544Z,1009.72
2023-05-25T04:37:23.203Z,1009.72
2023-05-25T04:37:54.286Z,1009.51
2023-05-25T04:38:27.246Z,1009.51
2023-05-25T04:38:58.292Z,1009.41
2023-05-25T04:39:31.436Z,1009.41
2023-05-25T04:40:02.248Z,1009.41
2023-05-25T04:40:35.986Z,1009.41
2023-05-25T04:41:06.286Z,1009.51
2023-05-25T04:41:39.098Z,1009.51
2023-05-25T04:42:10.067Z,1009.51
2023-05-25T04:42:43.116Z,1009.51
2023-05-25T04:43:14.209Z,1009.51
2023-05-25T04:44:03.911Z,1009.62
2023-05-25T04:44:17.890Z,1009.62
2023-05-25T04:44:51.135Z,1009.62
2023-05-25T04:45:22.037Z,1009.62
2023-05-25T04:45:54.752Z,1009.62
2023-05-25T04:46:26.169Z,1009.62
2023-05-25T04:46:58.815Z,1009.51
2023-05-25T04:47:29.845Z,1009.51
2023-05-25T04:48:02.815Z,1009.62
2023-05-25T04:48:34.237Z,1009.62
2023-05-25T04:49:06.751Z,1009.72
2023-05-25T04:49:37.953Z,1009.72
2023-05-25T04:50:11.955Z,1009.72
2023-05-25T04:50:41.734Z,1009.72
2023-05-25T04:51:14.669Z,1009.51
2023-05-25T04:51:45.665Z,1009.72
2023-05-25T04:52:19.516Z,1009.72
2023-05-25T04:52:49.701Z,1009.82
2023-05-25T04:53:22.768Z,1009.82
2023-05-25T04:53:53.716Z,1009.72
2023-05-25T04:54:26.603Z,1009.72
2023-05-25T04:54:57.474Z,1009.51
2023-05-25T04:55:30.706Z,1009.51
2023-05-25T04:56:01.640Z,1009.72
2023-05-25T04:56:34.155Z,1009.72
2023-05-25T04:57:05.262Z,1009.62
2023-05-25T04:57:39.571Z,1009.62
2023-05-25T04:58:09.576Z,1009.41
2023-05-25T04:58:42.146Z,1009.41
2023-05-25T04:59:13.268Z,1009.51
2023-05-25T04:59:46.415Z,1009.51
2023-05-25T05:00:17.952Z,1009.51
2023-05-25T05:00:52.472Z,1009.51
2023-05-25T05:01:21.307Z,1009.51
2023-05-25T05:01:54.435Z,1009.72
2023-05-25T05:02:25.300Z,1009.72
2023-05-25T05:02:58.189Z,1009.72
2023-05-25T05:03:29.329Z,1009.72
2023-05-25T05:04:02.516Z,1009.72
2023-05-25T05:04:33.164Z,1009.72
2023-05-25T05:05:05.973Z,1009.92
2023-05-25T05:05:37.072Z,1009.92
2023-05-25T05:06:10.306Z,1009.72
2023-05-25T05:06:41.208Z,1009.72
2023-05-25T05:07:13.689Z,1009.82
2023-05-25T05:07:45.023Z,1009.62
2023-05-25T05:08:18.045Z,1009.62
2023-05-25T05:08:49.161Z,1009.72
2023-05-25T05:09:21.836Z,1009.72
2023-05-25T05:09:52.860Z,1009.82
2023-05-25T05:10:25.730Z,1009.82
2023-05-25T05:10:56.940Z,1009.82
2023-05-25T05:11:29.821Z,1009.82
2023-05-25T05:12:00.866Z,1009.72
2023-05-25T05:12:33.895Z,1009.72
2023-05-25T05:13:05.031Z,1009.72
2023-05-25T05:13:37.647Z,1009.72
2023-05-25T05:14:08.702Z,1009.72
2023-05-25T05:14:41.728Z,1009.72
2023-05-25T05:15:12.944Z,1009.92
2023-05-25T05:15:46.147Z,1009.72
2023-05-25T05:16:16.764Z,1009.72
2023-05-25T05:16:49.599Z,1009.82
2023-05-25T05:17:21.529Z,1009.82
2023-05-25T05:17:53.403Z,1009.92
2023-05-25T05:18:24.613Z,1009.92
2023-05-25T05:18:57.722Z,1010.02
2023-05-25T05:19:28.416Z,1010.02
2023-05-25T05:20:01.656Z,1009.82
2023-05-25T05:20:32.557Z,1009.82
2023-05-25T05:21:05.438Z,1009.92
2023-05-25T05:21:36.481Z,1009.92
2023-05-25T05:22:09.304Z,1009.62
2023-05-25T05:22:40.567Z,1009.62
2023-05-25T05:23:13.581Z,1009.92
2023-05-25T05:23:44.271Z,1009.92
2023-05-25T05:24:17.120Z,1009.92
2023-05-25T05:24:48.263Z,1009.92
2023-05-25T05:25:21.462Z,1009.92
2023-05-25T05:25:52.185Z,1009.92
2023-05-25T05:26:25.153Z,1009.92
2023-05-25T05:26:58.161Z,1010.12
2023-05-25T05:27:29.204Z,1010.12
2023-05-25T05:28:00.050Z,1010.02
2023-05-25T05:28:33.419Z,1010.02
2023-05-25T05:29:03.980Z,1009.92
2023-05-25T05:29:37.109Z,1009.92
2023-05-25T05:30:08.098Z,1010.12
2023-05-25T05:30:41.426Z,1010.12
2023-05-25T05:31:12.462Z,1010.12
2023-05-25T05:31:45.179Z,1010.12
2023-05-25T05:32:15.854Z,1010.23
2023-05-25T05:32:49.106Z,1010.02
2023-05-25T05:33:20.258Z,1010.02
2023-05-25T05:33:53.176Z,1010.02
2023-05-25T05:34:24.034Z,1010.02
2023-05-25T05:34:56.712Z,1010.12
2023-05-25T05:35:27.921Z,1010.12
2023-05-25T05:36:00.935Z,1010.23
2023-05-25T05:36:38.759Z,1010.23
2023-05-25T05:37:04.703Z,1010.12
2023-05-25T05:37:35.944Z,1010.12
2023-05-25T05:38:08.925Z,1010.12
2023-05-25T05:38:40.068Z,1010.12
2023-05-25T05:39:12.521Z,1010.02
2023-05-25T05:39:43.624Z,1010.02
2023-05-25T05:40:17.013Z,1010.12
2023-05-25T05:40:47.405Z,1010.12
2023-05-25T05:41:20.611Z,1010.12
2023-05-25T05:41:51.726Z,1010.12
2023-05-25T05:42:24.499Z,1010.12
2023-05-25T05:42:55.509Z,1010.23
2023-05-25T05:43:28.643Z,1010.23
2023-05-25T05:43:59.477Z,1010.33
2023-05-25T05:44:32.413Z,1010.33
2023-05-25T05:45:03.357Z,1010.23
2023-05-25T05:45:37.292Z,1010.23
2023-05-25T05:46:07.533Z,1010.33
2023-05-25T05:46:40.147Z,1010.33
2023-05-25T05:47:11.317Z,1010.33
2023-05-25T05:47:44.296Z,1010.33
2023-05-25T05:48:15.406Z,1010.33
2023-05-25T05:48:48.222Z,1010.43
2023-05-25T05:49:19.280Z,1010.43
2023-05-25T05:49:52.244Z,1010.33
2023-05-25T05:50:23.366Z,1010.33
2023-05-25T05:50:56.116Z,1010.33
2023-05-25T05:51:27.189Z,1010.33
2023-05-25T05:52:00.267Z,1010.33
2023-05-25T05:52:31.345Z,1010.33
2023-05-25T05:53:04.354Z,1010.43
2023-05-25T05:53:35.112Z,1010.43
2023-05-25T05:54:08.104Z,1010.43
2023-05-25T05:54:39.168Z,1010.43
2023-05-25T05:55:11.787Z,1010.43
2023-05-25T05:55:43.161Z,1010.43
2023-05-25T05:56:16.135Z,1010.43
2023-05-25T05:56:46.941Z,1010.33
2023-05-25T05:57:19.757Z,1010.33
2023-05-25T05:57:51.063Z,1010.43
2023-05-25T05:58:23.985Z,1010.43
2023-05-25T05:58:54.878Z,1010.33
2023-05-25T05:59:27.775Z,1010.33
2023-05-25T05:59:58.746Z,1010.43
2023-05-25T06:00:31.879Z,1010.43
2023-05-25T06:01:02.671Z,1010.43
2023-05-25T06:01:35.837Z,1010.43
2023-05-25T06:02:06.757Z,1010.63
2023-05-25T06:02:41.645Z,1010.63
2023-05-25T06:03:10.552Z,1010.63
2023-05-25T06:03:43.769Z,1010.63
2023-05-25T06:04:14.611Z,1010.63
2023-05-25T06:04:47.652Z,1010.63
2023-05-25T06:05:18.513Z,1010.63
2023-05-25T06:05:51.598Z,1010.63
2023-05-25T06:06:22.589Z,1010.63
2023-05-25T06:06:55.720Z,1010.53
2023-05-25T06:07:26.540Z,1010.53
2023-05-25T06:07:59.362Z,1010.63
2023-05-25T06:08:30.716Z,1010.63
2023-05-25T06:09:03.440Z,1010.53
2023-05-25T06:09:34.387Z,1010.53
2023-05-25T06:10:07.489Z,1010.63
2023-05-25T06:10:38.476Z,1010.63
2023-05-25T06:11:11.535Z,1010.53
2023-05-25T06:11:42.427Z,1010.53
2023-05-25T06:12:15.198Z,1010.73
2023-05-25T06:12:46.234Z,1010.73
2023-05-25T06:13:19.295Z,1010.73
2023-05-25T06:13:50.137Z,1010.63
2023-05-25T06:14:23.052Z,1010.63
2023-05-25T06:14:54.358Z,1010.53
2023-05-25T06:15:27.523Z,1010.53
2023-05-25T06:15:58.078Z,1010.73
2023-05-25T06:16:31.463Z,1010.73
2023-05-25T06:17:02.535Z,1010.63
2023-05-25T06:17:35.312Z,1010.63
2023-05-25T06:18:06.014Z,1010.73
2023-05-25T06:18:39.137Z,1010.73
2023-05-25T06:19:10.019Z,1010.53
2023-05-25T06:19:43.112Z,1010.53
2023-05-25T06:20:14.043Z,1010.63
2023-05-25T06:20:47.091Z,1010.53
2023-05-25T06:21:17.984Z,1010.53
2023-05-25T06:21:51.160Z,1010.63
2023-05-25T06:22:21.947Z,1010.63
2023-05-25T06:22:54.909Z,1010.53
2023-05-25T06:23:25.862Z,1010.53
2023-05-25T06:23:58.825Z,1010.73
2023-05-25T06:24:29.696Z,1010.73
2023-05-25T06:25:02.939Z,1010.53
2023-05-25T06:25:33.961Z,1010.53
2023-05-25T06:26:06.575Z,1010.73
2023-05-25T06:26:37.534Z,1010.73